createdAt,value
2019-02-17T00:01:57.080Z,99.90
2019-02-17T00:04:37.951Z,99.90
2019-02-17T00:07:18.396Z,99.90
2019-02-17T00:09:58.747Z,99.90
2019-02-17T00:12:39.021Z,99.90
2019-02-17T00:15:20.204Z,99.90
2019-02-17T00:18:00.715Z,99.90
2019-02-17T00:20:41.911Z,99.90
2019-02-17T00:23:22.671Z,99.90
2019-02-17T00:26:01.449Z,99.90
2019-02-17T00:28:58.903Z,99.90
2019-02-17T00:31:38.858Z,99.90
2019-02-17T00:34:26.699Z,99.90
2019-02-17T00:37:14.576Z,99.90
2019-02-17T00:40:02.397Z,99.90
2019-02-17T00:42:50.200Z,99.90
2019-02-17T00:45:38.021Z,99.90
2019-02-17T00:48:25.859Z,99.90
2019-02-17T00:51:13.681Z,99.90
2019-02-17T00:54:01.560Z,99.90
2019-02-17T00:56:49.388Z,99.90
2019-02-17T00:59:37.184Z,99.90
2019-02-17T01:02:25.004Z,99.90
2019-02-17T01:05:12.907Z,99.90
2019-02-17T01:08:00.715Z,99.90
2019-02-17T01:10:48.523Z,99.90
2019-02-17T01:13:36.340Z,99.90
2019-02-17T01:16:16.766Z,99.90
2019-02-17T01:18:57.230Z,99.90
2019-02-17T01:21:38.474Z,99.90
2019-02-17T01:24:19.121Z,99.90
2019-02-17T01:26:59.464Z,99.90
2019-02-17T01:29:39.899Z,99.90
2019-02-17T01:32:20.813Z,99.90
2019-02-17T01:35:01.507Z,99.90
2019-02-17T01:37:42.063Z,99.90
2019-02-17T01:40:22.453Z,99.90
2019-02-17T01:43:02.952Z,99.90
2019-02-17T01:45:50.663Z,99.90
2019-02-17T01:48:38.517Z,99.90
2019-02-17T01:51:26.298Z,99.90
2019-02-17T01:54:14.110Z,99.90
2019-02-17T01:57:01.913Z,99.90
2019-02-17T01:59:49.733Z,99.90
2019-02-17T02:02:37.522Z,99.90
2019-02-17T02:05:18.093Z,99.90
2019-02-17T02:07:58.501Z,99.90
2019-02-17T02:10:37.279Z,99.90
2019-02-17T02:13:25.166Z,99.90
2019-02-17T02:16:13.054Z,99.90
2019-02-17T02:19:00.836Z,99.90
2019-02-17T02:21:48.713Z,99.90
2019-02-17T02:24:27.458Z,99.90
2019-02-17T02:27:15.311Z,99.90
2019-02-17T02:30:03.437Z,99.90
2019-02-17T02:32:51.266Z,99.90
2019-02-17T02:35:39.096Z,99.90
2019-02-17T02:38:26.906Z,99.90
2019-02-17T02:41:14.721Z,99.90
2019-02-17T02:44:02.514Z,99.90
2019-02-17T02:46:30.985Z,99.90
2019-02-17T02:49:18.782Z,99.90
2019-02-17T02:52:06.677Z,99.90
2019-02-17T02:54:47.353Z,99.90
2019-02-17T02:57:28.313Z,99.90
2019-02-17T03:00:08.826Z,99.90
2019-02-17T03:02:56.744Z,99.90
2019-02-17T03:08:53.130Z,99.90
2019-02-17T03:11:40.915Z,99.90
2019-02-17T03:14:28.731Z,99.90
2019-02-17T03:17:16.526Z,99.90
2019-02-17T03:20:25.087Z,99.90
2019-02-17T03:23:12.984Z,99.90
2019-02-17T03:26:00.864Z,99.90
2019-02-17T03:28:48.740Z,99.90
2019-02-17T03:31:36.565Z,99.90
2019-02-17T03:34:24.401Z,99.90
2019-02-17T03:37:12.206Z,99.90
2019-02-17T03:40:00.308Z,99.90
2019-02-17T03:42:48.193Z,99.90
2019-02-17T03:45:36.087Z,99.90
2019-02-17T03:48:24.461Z,99.90
2019-02-17T03:54:11.795Z,99.90
2019-02-17T03:56:59.746Z,99.90
2019-02-17T03:59:47.551Z,99.90
2019-02-17T04:02:35.379Z,99.90
2019-02-17T04:05:23.175Z,99.90
2019-02-17T04:08:11.145Z,99.90
2019-02-17T04:10:58.972Z,99.90
2019-02-17T04:13:46.778Z,99.90
2019-02-17T04:16:34.748Z,99.90
2019-02-17T04:19:15.488Z,99.90
2019-02-17T04:21:56.257Z,99.90
2019-02-17T04:24:37.234Z,99.90
2019-02-17T04:27:18.330Z,99.90
2019-02-17T04:29:58.733Z,99.90
2019-02-17T04:32:39.115Z,99.90
2019-02-17T04:35:19.511Z,99.90
2019-02-17T04:38:00.173Z,99.90
2019-02-17T04:40:41.346Z,99.90
2019-02-17T04:43:22.023Z,99.90
2019-02-17T04:46:02.725Z,99.90
2019-02-17T04:48:43.977Z,99.90
2019-02-17T04:51:12.499Z,99.90
2019-02-17T04:54:00.339Z,99.90
2019-02-17T04:56:48.149Z,99.90
2019-02-17T04:59:36.123Z,99.90
2019-02-17T05:02:23.925Z,99.90
2019-02-17T05:05:11.809Z,99.90
2019-02-17T05:08:01.293Z,99.90
2019-02-17T05:10:49.161Z,99.90
2019-02-17T05:13:36.997Z,99.90
2019-02-17T05:16:24.874Z,99.90
2019-02-17T05:19:12.711Z,99.90
2019-02-17T05:22:00.531Z,99.90
2019-02-17T05:24:48.362Z,99.90
2019-02-17T05:27:36.276Z,99.90
2019-02-17T05:30:24.165Z,99.90
2019-02-17T05:33:11.965Z,99.90
2019-02-17T05:35:59.791Z,99.90
2019-02-17T05:38:47.674Z,99.90
2019-02-17T05:41:35.500Z,99.90
2019-02-17T05:44:23.328Z,99.90
2019-02-17T05:47:11.138Z,99.90
2019-02-17T05:49:59.027Z,99.90
2019-02-17T05:52:27.504Z,99.90
2019-02-17T05:55:08.278Z,99.90
2019-02-17T05:57:49.072Z,99.90
2019-02-17T06:00:31.152Z,99.90
2019-02-17T06:03:11.809Z,99.90
2019-02-17T06:05:52.326Z,99.90
2019-02-17T06:08:33.116Z,99.90
2019-02-17T06:11:13.611Z,99.90
2019-02-17T06:13:54.078Z,99.90
2019-02-17T06:16:34.969Z,99.90
2019-02-17T06:19:17.718Z,99.90
2019-02-17T06:21:58.309Z,99.90
2019-02-17T06:24:39.399Z,99.90
2019-02-17T06:27:20.303Z,99.90
2019-02-17T06:30:00.682Z,99.90
2019-02-17T06:32:40.930Z,99.90
2019-02-17T06:35:21.498Z,99.90
2019-02-17T06:38:02.239Z,99.90
2019-02-17T06:40:43.467Z,99.90
2019-02-17T06:43:24.092Z,99.90
2019-02-17T06:46:05.325Z,99.90
2019-02-17T06:48:44.250Z,99.90
2019-02-17T06:51:24.631Z,99.90
2019-02-17T06:54:05.303Z,99.90
2019-02-17T06:59:28.682Z,99.90
2019-02-17T07:02:16.580Z,99.90
2019-02-17T07:05:24.369Z,99.90
2019-02-17T07:08:12.219Z,99.90
2019-02-17T07:11:00.110Z,99.90
2019-02-17T07:13:47.964Z,99.90
2019-02-17T07:16:35.802Z,99.90
2019-02-17T07:19:23.596Z,99.90
2019-02-17T07:22:11.434Z,99.90
2019-02-17T07:24:59.265Z,99.90
2019-02-17T07:27:47.065Z,99.90
2019-02-17T07:30:15.526Z,99.40
2019-02-17T07:33:03.325Z,98.80
2019-02-17T07:35:51.164Z,98.10
2019-02-17T07:38:38.949Z,97.50
2019-02-17T07:41:26.779Z,97.30
2019-02-17T07:44:14.604Z,96.50
2019-02-17T07:47:02.439Z,94.70
2019-02-17T07:49:50.236Z,93.90
2019-02-17T07:52:38.413Z,92.00
2019-02-17T07:55:26.283Z,90.20
2019-02-17T07:58:07.527Z,86.80
2019-02-17T08:00:48.603Z,83.50
2019-02-17T08:03:29.109Z,81.20
2019-02-17T08:06:10.002Z,81.50
2019-02-17T08:08:50.985Z,81.90
2019-02-17T08:11:32.729Z,81.90
2019-02-17T08:14:13.345Z,79.60
2019-02-17T08:16:54.532Z,76.80
2019-02-17T08:19:35.277Z,76.30
2019-02-17T08:22:16.043Z,76.40
2019-02-17T08:24:56.800Z,75.90
2019-02-17T08:27:37.112Z,75.20
2019-02-17T08:30:18.097Z,73.70
2019-02-17T08:32:59.320Z,73.60
2019-02-17T08:35:40.307Z,73.60
2019-02-17T08:38:19.207Z,72.70
2019-02-17T08:41:07.037Z,71.40
2019-02-17T08:44:02.475Z,72.10
2019-02-17T08:46:50.293Z,71.50
2019-02-17T08:49:38.099Z,70.60
2019-02-17T08:52:19.198Z,68.40
2019-02-17T08:54:59.803Z,68.40
2019-02-17T08:57:40.541Z,67.10
2019-02-17T09:00:21.656Z,63.80
2019-02-17T09:03:02.011Z,63.40
2019-02-17T09:05:44.462Z,61.20
2019-02-17T09:08:23.308Z,60.10
2019-02-17T09:10:51.773Z,60.20
2019-02-17T09:13:21.181Z,62.00
2019-02-17T09:16:01.876Z,62.00
2019-02-17T09:18:42.703Z,61.40
2019-02-17T09:21:23.820Z,59.30
2019-02-17T09:24:04.106Z,58.50
2019-02-17T09:26:45.221Z,55.80
2019-02-17T09:29:26.250Z,56.80
2019-02-17T09:32:16.066Z,54.60
2019-02-17T09:34:49.639Z,53.70
2019-02-17T09:37:30.918Z,55.50
2019-02-17T09:40:11.746Z,53.60
2019-02-17T09:42:52.781Z,53.60
2019-02-17T09:45:21.245Z,52.70
2019-02-17T09:48:09.173Z,55.40
2019-02-17T09:50:57.020Z,59.00
2019-02-17T09:53:44.860Z,54.40
2019-02-17T09:56:32.728Z,49.10
2019-02-17T09:59:20.644Z,48.60
2019-02-17T10:01:49.217Z,46.60
2019-02-17T10:04:37.081Z,46.90
2019-02-17T10:07:24.898Z,47.70
2019-02-17T10:10:32.083Z,48.70
2019-02-17T10:13:20.005Z,45.60
2019-02-17T10:16:07.889Z,43.30
2019-02-17T10:18:55.718Z,42.90
2019-02-17T10:21:24.189Z,45.80
2019-02-17T10:23:52.683Z,44.50
2019-02-17T10:26:21.139Z,43.70
2019-02-17T10:28:49.619Z,42.30
2019-02-17T10:31:37.535Z,41.20
2019-02-17T10:34:17.832Z,40.60
2019-02-17T10:36:58.908Z,42.00
2019-02-17T10:39:27.581Z,39.90
2019-02-17T10:42:15.464Z,41.10
2019-02-17T10:45:03.540Z,38.90
2019-02-17T10:47:51.418Z,38.80
2019-02-17T10:50:39.274Z,38.40
2019-02-17T10:53:20.234Z,38.10
2019-02-17T10:56:01.343Z,38.60
2019-02-17T10:58:42.158Z,36.80
2019-02-17T11:01:22.904Z,37.80
2019-02-17T11:04:10.889Z,36.90
2019-02-17T11:07:00.019Z,38.00
2019-02-17T11:09:48.249Z,39.60
2019-02-17T11:12:16.701Z,38.70
2019-02-17T11:15:25.254Z,38.20
2019-02-17T11:18:13.073Z,39.30
2019-02-17T11:21:01.019Z,36.80
2019-02-17T11:23:48.917Z,36.60
2019-02-17T11:26:36.782Z,34.20
2019-02-17T11:29:24.583Z,33.50
2019-02-17T11:32:12.413Z,34.70
2019-02-17T11:35:00.365Z,35.00
2019-02-17T11:37:29.559Z,33.70
2019-02-17T11:40:17.488Z,35.20
2019-02-17T11:43:05.446Z,35.30
2019-02-17T11:45:53.367Z,33.30
2019-02-17T11:48:41.452Z,32.90
2019-02-17T11:51:29.240Z,33.20
2019-02-17T11:54:09.935Z,33.50
2019-02-17T11:56:51.014Z,31.90
2019-02-17T11:59:31.944Z,33.00
2019-02-17T12:02:12.640Z,32.80
2019-02-17T12:04:41.202Z,32.60
2019-02-17T12:07:09.674Z,33.40
2019-02-17T12:09:38.143Z,33.30
2019-02-17T12:12:26.033Z,33.40
2019-02-17T12:15:14.141Z,33.70
2019-02-17T12:18:01.989Z,34.20
2019-02-17T12:20:32.157Z,31.90
2019-02-17T12:23:05.185Z,33.00
2019-02-17T12:25:35.343Z,32.80
2019-02-17T12:28:05.510Z,33.70
2019-02-17T12:30:33.957Z,32.00
2019-02-17T12:33:02.447Z,31.70
2019-02-17T12:35:50.294Z,31.60
2019-02-17T12:38:38.087Z,31.50
2019-02-17T12:41:06.667Z,31.10
2019-02-17T12:43:54.516Z,31.30
2019-02-17T12:46:23.052Z,30.70
2019-02-17T12:49:10.907Z,31.20
2019-02-17T12:51:58.747Z,30.50
2019-02-17T12:54:29.368Z,32.00
2019-02-17T12:56:57.526Z,31.60
2019-02-17T12:59:45.428Z,32.30
2019-02-17T13:02:33.303Z,32.30
2019-02-17T13:05:21.162Z,32.20
2019-02-17T13:08:09.030Z,31.00
2019-02-17T13:10:56.897Z,30.80
2019-02-17T13:13:44.761Z,30.60
2019-02-17T13:16:32.623Z,31.10
2019-02-17T13:19:20.491Z,30.60
2019-02-17T13:22:08.439Z,30.30
2019-02-17T13:24:56.289Z,31.00
2019-02-17T13:27:44.098Z,31.50
2019-02-17T13:30:32.009Z,31.80
2019-02-17T13:33:19.855Z,31.60
2019-02-17T13:36:07.657Z,31.30
2019-02-17T13:38:36.210Z,30.40
2019-02-17T13:41:04.739Z,30.60
2019-02-17T13:43:33.227Z,30.90
2019-02-17T13:46:01.708Z,30.80
2019-02-17T13:48:30.170Z,30.90
2019-02-17T13:51:18.070Z,30.90
2019-02-17T13:54:05.966Z,31.20
2019-02-17T13:56:34.870Z,31.00
2019-02-17T13:59:22.761Z,31.70
2019-02-17T14:02:10.600Z,31.60
2019-02-17T14:04:58.443Z,31.10
2019-02-17T14:07:46.261Z,31.40
2019-02-17T14:10:34.148Z,32.10
2019-02-17T14:13:21.945Z,32.40
2019-02-17T14:16:09.798Z,32.90
2019-02-17T14:18:57.598Z,35.60
2019-02-17T14:21:45.456Z,32.80
2019-02-17T14:24:33.335Z,34.20
2019-02-17T14:27:21.179Z,33.10
2019-02-17T14:30:30.467Z,33.00
2019-02-17T14:33:00.015Z,33.10
2019-02-17T14:35:47.868Z,33.40
2019-02-17T14:38:35.702Z,33.20
2019-02-17T14:41:23.527Z,32.80
2019-02-17T14:44:11.359Z,32.90
2019-02-17T14:46:59.255Z,33.00
2019-02-17T14:49:47.083Z,33.30
2019-02-17T14:52:15.650Z,33.70
2019-02-17T14:54:56.559Z,34.30
2019-02-17T14:57:37.753Z,35.40
2019-02-17T15:00:18.533Z,35.60
2019-02-17T15:02:57.489Z,35.20
2019-02-17T15:05:45.356Z,35.50
2019-02-17T15:08:33.174Z,35.70
2019-02-17T15:11:21.036Z,35.40
2019-02-17T15:14:08.870Z,35.10
2019-02-17T15:16:56.742Z,35.60
2019-02-17T15:19:44.645Z,35.60
2019-02-17T15:22:32.458Z,35.60
2019-02-17T15:25:20.278Z,37.10
2019-02-17T15:28:08.160Z,36.50
2019-02-17T15:30:56.034Z,36.70
2019-02-17T15:33:43.859Z,36.70
2019-02-17T15:36:31.699Z,36.80
2019-02-17T15:39:12.151Z,36.50
2019-02-17T15:41:51.689Z,36.20
2019-02-17T15:44:39.515Z,36.50
2019-02-17T15:47:27.441Z,37.00
2019-02-17T15:50:15.336Z,37.30
2019-02-17T15:52:43.805Z,37.40
2019-02-17T15:55:13.641Z,37.90
2019-02-17T15:57:42.255Z,38.20
2019-02-17T16:00:15.748Z,39.30
2019-02-17T16:02:44.246Z,38.90
2019-02-17T16:05:13.014Z,39.10
2019-02-17T16:07:41.509Z,39.30
2019-02-17T16:10:15.133Z,40.10
2019-02-17T16:13:03.024Z,40.30
2019-02-17T16:15:50.872Z,40.90
2019-02-17T16:18:38.707Z,41.30
2019-02-17T16:21:26.536Z,41.70
2019-02-17T16:24:14.334Z,42.10
2019-02-17T16:26:43.549Z,42.60
2019-02-17T16:29:31.357Z,43.10
2019-02-17T16:32:19.179Z,43.00
2019-02-17T16:35:07.050Z,43.20
2019-02-17T16:37:35.556Z,43.70
2019-02-17T16:40:23.396Z,44.30
2019-02-17T16:43:11.231Z,45.80
2019-02-17T16:45:59.103Z,46.00
2019-02-17T16:48:46.922Z,46.40
2019-02-17T16:51:34.757Z,46.20
2019-02-17T16:54:22.567Z,46.40
2019-02-17T16:57:03.729Z,46.30
2019-02-17T16:59:44.339Z,46.80
2019-02-17T17:02:25.477Z,47.00
2019-02-17T17:04:54.097Z,47.20
2019-02-17T17:07:41.990Z,47.80
2019-02-17T17:10:10.649Z,48.30
2019-02-17T17:12:58.620Z,48.50
2019-02-17T17:15:27.123Z,48.30
2019-02-17T17:18:15.585Z,48.90
2019-02-17T17:20:44.142Z,49.20
2019-02-17T17:23:31.985Z,49.10
2019-02-17T17:26:19.780Z,49.30
2019-02-17T17:29:07.642Z,49.30
2019-02-17T17:31:55.527Z,49.60
2019-02-17T17:34:43.425Z,49.80
2019-02-17T17:37:11.896Z,50.10
2019-02-17T17:39:40.387Z,50.00
2019-02-17T17:42:28.192Z,50.20
2019-02-17T17:45:16.863Z,50.10
2019-02-17T17:48:04.742Z,50.50
2019-02-17T17:50:52.584Z,50.90
2019-02-17T17:53:21.106Z,51.00
2019-02-17T17:56:01.835Z,51.10
2019-02-17T17:58:30.396Z,51.30
2019-02-17T18:01:18.641Z,51.60
2019-02-17T18:04:06.479Z,51.80
2019-02-17T18:06:54.291Z,52.00
2019-02-17T18:09:22.852Z,52.30
2019-02-17T18:11:51.311Z,52.80
2019-02-17T18:14:39.212Z,53.00
2019-02-17T18:17:27.051Z,53.40
2019-02-17T18:20:14.931Z,53.30
2019-02-17T18:23:02.830Z,53.90
2019-02-17T18:25:50.889Z,53.90
2019-02-17T18:28:38.712Z,54.00
2019-02-17T18:31:26.646Z,54.30
2019-02-17T18:34:14.516Z,54.60
2019-02-17T18:37:02.432Z,54.60
2019-02-17T18:39:50.240Z,54.90
2019-02-17T18:42:38.069Z,55.30
2019-02-17T18:45:25.976Z,56.20
2019-02-17T18:48:13.804Z,55.30
2019-02-17T18:51:01.640Z,55.60
2019-02-17T18:53:49.495Z,56.20
2019-02-17T18:56:30.563Z,56.50
2019-02-17T18:59:11.442Z,56.80
2019-02-17T19:01:51.715Z,57.00
2019-02-17T19:04:32.419Z,57.60
2019-02-17T19:07:13.187Z,58.50
2019-02-17T19:09:53.748Z,58.90
2019-02-17T19:12:34.610Z,59.30
2019-02-17T19:15:15.613Z,59.60
2019-02-17T19:17:44.192Z,60.30
2019-02-17T19:20:52.826Z,60.90
2019-02-17T19:23:40.787Z,61.30
2019-02-17T19:26:09.371Z,62.00
2019-02-17T19:28:57.258Z,62.60
2019-02-17T19:31:45.155Z,63.20
2019-02-17T19:34:34.409Z,64.10
2019-02-17T19:37:22.527Z,64.80
2019-02-17T19:40:31.129Z,65.30
2019-02-17T19:43:19.033Z,66.30
2019-02-17T19:46:06.839Z,67.10
2019-02-17T19:48:54.685Z,68.20
2019-02-17T19:51:42.538Z,69.40
2019-02-17T19:54:30.453Z,70.50
2019-02-17T19:57:09.319Z,71.60
2019-02-17T19:59:57.181Z,72.60
2019-02-17T20:05:58.916Z,73.40
2019-02-17T20:08:46.749Z,73.40
2019-02-17T20:11:34.559Z,74.80
2019-02-17T20:14:15.721Z,76.20
2019-02-17T20:16:56.673Z,77.60
2019-02-17T20:19:37.911Z,77.90
2019-02-17T20:22:18.388Z,78.90
2019-02-17T20:24:58.853Z,79.80
2019-02-17T20:27:39.152Z,80.50
2019-02-17T20:30:18.028Z,81.50
2019-02-17T20:33:05.899Z,82.40
2019-02-17T20:36:02.520Z,83.40
2019-02-17T20:38:43.274Z,84.70
2019-02-17T20:44:38.058Z,86.60
2019-02-17T20:47:26.020Z,87.50
2019-02-17T20:50:14.320Z,89.10
2019-02-17T20:53:02.242Z,89.50
2019-02-17T20:55:50.067Z,90.30
2019-02-17T20:58:30.473Z,90.00
2019-02-17T21:01:12.366Z,90.00
2019-02-17T21:03:53.138Z,90.50
2019-02-17T21:06:34.153Z,91.10
2019-02-17T21:09:14.678Z,91.50
2019-02-17T21:11:55.730Z,91.90
2019-02-17T21:14:36.418Z,92.20
2019-02-17T21:17:17.535Z,93.20
2019-02-17T21:19:58.365Z,94.40
2019-02-17T21:22:39.280Z,95.10
2019-02-17T21:25:19.945Z,95.80
2019-02-17T21:28:00.705Z,96.20
2019-02-17T21:30:41.677Z,96.40
2019-02-17T21:33:22.626Z,96.80
2019-02-17T21:36:03.328Z,97.00
2019-02-17T21:38:44.418Z,97.80
2019-02-17T21:41:24.880Z,98.60
2019-02-17T21:44:03.914Z,98.70
2019-02-17T21:46:51.736Z,99.30
2019-02-17T21:49:39.568Z,99.80
2019-02-17T21:52:27.396Z,99.90
2019-02-17T21:54:55.863Z,99.90
2019-02-17T21:57:43.774Z,99.90
2019-02-17T22:00:31.689Z,99.90
2019-02-17T22:03:19.497Z,99.90
2019-02-17T22:06:07.403Z,99.90
2019-02-17T22:08:55.284Z,99.90
2019-02-17T22:11:43.101Z,99.90
2019-02-17T22:14:30.945Z,99.90
2019-02-17T22:17:18.858Z,99.90
2019-02-17T22:20:27.548Z,99.90
2019-02-17T22:23:15.459Z,99.90
2019-02-17T22:26:03.324Z,99.90
2019-02-17T22:28:51.157Z,99.90
2019-02-17T22:31:38.973Z,99.90
2019-02-17T22:34:26.895Z,99.90
2019-02-17T22:37:14.781Z,99.90
2019-02-17T22:40:02.675Z,99.90
2019-02-17T22:42:50.598Z,99.90
2019-02-17T22:45:19.119Z,99.90
2019-02-17T22:48:06.973Z,99.90
2019-02-17T22:50:54.782Z,99.90
2019-02-17T22:53:43.958Z,99.90
2019-02-17T22:56:24.697Z,99.90
2019-02-17T22:59:05.003Z,99.90
2019-02-17T23:01:45.890Z,99.90
2019-02-17T23:04:27.155Z,99.90
2019-02-17T23:07:08.137Z,99.90
2019-02-17T23:09:48.647Z,99.90
2019-02-17T23:12:29.651Z,99.90
2019-02-17T23:15:10.955Z,99.90
2019-02-17T23:17:51.738Z,99.90
2019-02-17T23:20:32.761Z,99.90
2019-02-17T23:23:13.109Z,99.90
2019-02-17T23:25:53.848Z,99.90
2019-02-17T23:28:32.721Z,99.90
2019-02-17T23:31:20.590Z,99.90
2019-02-17T23:34:08.422Z,99.90
2019-02-17T23:37:03.661Z,99.90
2019-02-17T23:42:54.376Z,99.90
2019-02-17T23:45:44.479Z,99.90
2019-02-17T23:48:31.770Z,99.90
2019-02-17T23:51:19.616Z,99.90
2019-02-17T23:54:07.517Z,99.90
2019-02-17T23:56:55.318Z,99.90
2019-02-17T23:59:36.220Z,99.90
